createdAt,value
2023-03-15T00:02:22.508Z,-2.20
2023-03-15T00:04:50.873Z,-2.20
2023-03-15T00:07:18.964Z,-2.10
2023-03-15T00:09:48.539Z,-2.20
2023-03-15T00:12:16.850Z,-2.10
2023-03-15T00:14:47.788Z,-2.20
2023-03-15T00:17:16.088Z,-2.20
2023-03-15T00:19:44.324Z,-2.20
2023-03-15T00:22:12.695Z,-2.20
2023-03-15T00:24:40.886Z,-2.30
2023-03-15T00:27:10.665Z,-2.30
2023-03-15T00:29:38.835Z,-2.40
2023-03-15T00:32:07.229Z,-2.40
2023-03-15T00:34:35.536Z,-2.30
2023-03-15T00:37:04.051Z,-2.40
2023-03-15T00:39:32.349Z,-2.40
2023-03-15T00:42:00.508Z,-2.40
2023-03-15T00:44:31.042Z,-2.40
2023-03-15T00:46:59.343Z,-2.50
2023-03-15T00:49:27.520Z,-2.50
2023-03-15T00:51:56.147Z,-2.50
2023-03-15T00:54:25.001Z,-2.50
2023-03-15T00:56:53.464Z,-2.60
2023-03-15T00:59:22.133Z,-2.70
2023-03-15T01:01:51.743Z,-2.70
2023-03-15T01:04:20.165Z,-2.70
2023-03-15T01:06:48.252Z,-2.70
2023-03-15T01:09:16.501Z,-2.70
2023-03-15T01:11:44.754Z,-2.70
2023-03-15T01:14:12.977Z,-2.80
2023-03-15T01:16:41.279Z,-2.70
2023-03-15T01:19:11.013Z,-2.80
2023-03-15T01:21:39.422Z,-2.70
2023-03-15T01:24:07.758Z,-2.70
2023-03-15T01:26:35.878Z,-2.80
2023-03-15T01:29:04.223Z,-2.90
2023-03-15T01:31:32.807Z,-2.90
2023-03-15T01:34:01.159Z,-2.90
2023-03-15T01:36:30.722Z,-2.90
2023-03-15T01:39:01.402Z,-2.90
2023-03-15T01:41:29.605Z,-3.00
2023-03-15T01:43:57.741Z,-2.90
2023-03-15T01:46:26.755Z,-3.00
2023-03-15T01:48:57.440Z,-3.00
2023-03-15T01:51:27.483Z,-3.10
2023-03-15T01:54:00.165Z,-3.20
2023-03-15T01:56:29.384Z,-3.20
2023-03-15T01:58:58.341Z,-3.20
2023-03-15T02:01:27.055Z,-3.20
2023-03-15T02:03:58.331Z,-3.30
2023-03-15T02:06:26.977Z,-3.30
2023-03-15T02:08:58.255Z,-3.30
2023-03-15T02:11:27.398Z,-3.30
2023-03-15T02:13:56.600Z,-3.30
2023-03-15T02:16:25.413Z,-3.20
2023-03-15T02:18:53.753Z,-3.30
2023-03-15T02:21:29.369Z,-3.30
2023-03-15T02:24:03.587Z,-3.40
2023-03-15T02:26:36.177Z,-3.40
2023-03-15T02:29:05.866Z,-3.40
2023-03-15T02:31:38.294Z,-3.40
2023-03-15T02:34:07.008Z,-3.50
2023-03-15T02:36:35.892Z,-3.40
2023-03-15T02:39:14.000Z,-3.50
2023-03-15T02:41:43.833Z,-3.50
2023-03-15T02:44:16.008Z,-3.60
2023-03-15T02:46:45.003Z,-3.60
2023-03-15T02:49:13.453Z,-3.60
2023-03-15T02:51:41.715Z,-3.60
2023-03-15T02:54:10.004Z,-3.60
2023-03-15T02:56:38.167Z,-3.60
2023-03-15T02:59:06.436Z,-3.60
2023-03-15T03:01:37.494Z,-3.60
2023-03-15T03:04:05.921Z,-3.50
2023-03-15T03:06:34.076Z,-3.60
2023-03-15T03:09:04.694Z,-3.50
2023-03-15T03:11:32.876Z,-3.40
2023-03-15T03:14:01.078Z,-3.40
2023-03-15T03:16:29.311Z,-3.50
2023-03-15T03:19:00.756Z,-3.50
2023-03-15T03:21:28.952Z,-3.50
2023-03-15T03:23:57.055Z,-3.60
2023-03-15T03:26:28.225Z,-3.50
2023-03-15T03:28:57.071Z,-3.60
2023-03-15T03:31:26.569Z,-3.60
2023-03-15T03:33:58.513Z,-3.60
2023-03-15T03:36:28.119Z,-3.60
2023-03-15T03:38:57.229Z,-3.60
2023-03-15T03:41:25.378Z,-3.70
2023-03-15T03:43:53.748Z,-3.70
2023-03-15T03:46:22.034Z,-3.70
2023-03-15T03:48:50.211Z,-3.60
2023-03-15T03:51:18.467Z,-3.70
2023-03-15T03:53:48.345Z,-3.70
2023-03-15T03:56:16.485Z,-3.70
2023-03-15T03:58:44.692Z,-3.60
2023-03-15T04:01:13.035Z,-3.60
2023-03-15T04:03:41.186Z,-3.70
2023-03-15T04:06:09.456Z,-3.60
2023-03-15T04:08:37.789Z,-3.70
2023-03-15T04:11:07.438Z,-3.70
2023-03-15T04:13:35.603Z,-3.80
2023-03-15T04:16:04.175Z,-3.70
2023-03-15T04:18:32.592Z,-3.70
2023-03-15T04:21:00.747Z,-3.70
2023-03-15T04:23:28.874Z,-3.80
2023-03-15T04:25:58.208Z,-3.80
2023-03-15T04:28:27.777Z,-3.80
2023-03-15T04:30:59.011Z,-3.80
2023-03-15T04:33:27.527Z,-3.80
2023-03-15T04:35:55.761Z,-3.80
2023-03-15T04:38:26.940Z,-3.80
2023-03-15T04:40:55.951Z,-3.90
2023-03-15T04:43:33.557Z,-3.80
2023-03-15T04:46:03.072Z,-3.80
2023-03-15T04:48:33.094Z,-3.80
2023-03-15T04:51:01.754Z,-3.80
2023-03-15T04:53:29.896Z,-3.80
2023-03-15T04:55:59.544Z,-3.80
2023-03-15T04:58:27.656Z,-3.80
2023-03-15T05:00:56.041Z,-3.80
2023-03-15T05:03:28.380Z,-3.80
2023-03-15T05:05:56.541Z,-3.90
2023-03-15T05:08:24.660Z,-3.90
2023-03-15T05:10:53.148Z,-3.90
2023-03-15T05:13:21.512Z,-3.90
2023-03-15T05:15:49.663Z,-3.90
2023-03-15T05:18:17.972Z,-3.90
2023-03-15T05:20:47.739Z,-3.90
2023-03-15T05:23:15.936Z,-3.90
2023-03-15T05:25:44.473Z,-3.90
2023-03-15T05:28:12.767Z,-4.00
2023-03-15T05:30:41.546Z,-3.90
2023-03-15T05:33:09.649Z,-3.90
2023-03-15T05:35:37.878Z,-3.90
2023-03-15T05:38:07.672Z,-3.90
2023-03-15T05:40:35.885Z,-3.90
2023-03-15T05:43:04.130Z,-3.80
2023-03-15T05:45:32.497Z,-3.80
2023-03-15T05:48:00.699Z,-3.90
2023-03-15T05:50:31.115Z,-3.80
2023-03-15T05:53:00.079Z,-3.80
2023-03-15T05:55:32.699Z,-3.80
2023-03-15T05:58:01.088Z,-3.80
2023-03-15T06:00:31.380Z,-3.80
2023-03-15T06:02:59.728Z,-3.70
2023-03-15T06:05:28.228Z,-3.70
2023-03-15T06:07:58.830Z,-3.70
2023-03-15T06:10:26.963Z,-3.70
2023-03-15T06:12:56.710Z,-3.70
2023-03-15T06:15:24.848Z,-3.60
2023-03-15T06:17:53.052Z,-3.60
2023-03-15T06:20:21.415Z,-3.60
2023-03-15T06:22:49.587Z,-3.60
2023-03-15T06:25:17.887Z,-3.50
2023-03-15T06:27:46.052Z,-3.40
2023-03-15T06:30:17.168Z,-3.50
2023-03-15T06:32:45.460Z,-3.40
2023-03-15T06:35:13.832Z,-3.40
2023-03-15T06:37:42.273Z,-3.40
2023-03-15T06:40:11.701Z,-3.30
2023-03-15T06:42:40.868Z,-3.20
2023-03-15T06:45:09.956Z,-3.10
2023-03-15T06:47:39.726Z,-2.90
2023-03-15T06:50:08.535Z,-2.80
2023-03-15T06:52:36.774Z,-2.70
2023-03-15T06:55:05.074Z,-2.50
2023-03-15T06:57:33.426Z,-2.50
2023-03-15T07:00:04.321Z,-2.60
2023-03-15T07:02:37.609Z,-2.70
2023-03-15T07:05:08.012Z,-2.60
2023-03-15T07:07:36.191Z,-2.60
2023-03-15T07:10:04.430Z,-2.50
2023-03-15T07:12:32.768Z,-2.40
2023-03-15T07:15:00.927Z,-2.40
2023-03-15T07:17:29.228Z,-2.40
2023-03-15T07:19:59.272Z,-2.30
2023-03-15T07:22:31.896Z,-2.30
2023-03-15T07:25:00.186Z,-2.20
2023-03-15T07:27:29.443Z,-2.20
2023-03-15T07:29:57.716Z,-2.10
2023-03-15T07:32:25.966Z,-2.00
2023-03-15T07:34:58.295Z,-2.00
2023-03-15T07:37:26.515Z,-1.90
2023-03-15T07:39:56.231Z,-1.80
2023-03-15T07:42:24.331Z,-1.70
2023-03-15T07:44:52.483Z,-1.60
2023-03-15T07:47:21.013Z,-1.60
2023-03-15T07:49:49.403Z,-1.50
2023-03-15T07:52:18.168Z,-1.40
2023-03-15T07:54:47.289Z,-1.40
2023-03-15T07:57:18.068Z,-1.30
2023-03-15T07:59:46.183Z,-1.20
2023-03-15T08:02:14.806Z,-1.10
2023-03-15T08:04:43.101Z,-1.00
2023-03-15T08:07:11.437Z,-0.90
2023-03-15T08:09:39.947Z,-0.80
2023-03-15T08:12:08.604Z,-0.80
2023-03-15T08:14:38.183Z,-0.70
2023-03-15T08:17:06.463Z,-0.70
2023-03-15T08:19:34.725Z,-0.60
2023-03-15T08:22:02.937Z,-0.50
2023-03-15T08:24:31.255Z,-0.50
2023-03-15T08:26:59.415Z,-0.40
2023-03-15T08:29:30.760Z,-0.30
2023-03-15T08:32:00.397Z,-0.30
2023-03-15T08:34:28.833Z,-0.20
2023-03-15T08:36:57.083Z,0.00
2023-03-15T08:39:25.214Z,0.10
2023-03-15T08:41:53.539Z,0.10
2023-03-15T08:44:21.731Z,0.20
2023-03-15T08:46:49.981Z,0.30
2023-03-15T08:49:19.550Z,0.30
2023-03-15T08:51:47.821Z,0.50
2023-03-15T08:54:16.044Z,0.50
2023-03-15T08:56:44.620Z,0.50
2023-03-15T08:59:19.301Z,0.60
2023-03-15T09:01:50.581Z,0.60
2023-03-15T09:04:20.458Z,0.80
2023-03-15T09:06:48.609Z,0.90
2023-03-15T09:09:17.436Z,0.80
2023-03-15T09:11:45.715Z,0.90
2023-03-15T09:14:13.852Z,1.00
2023-03-15T09:16:42.204Z,1.10
2023-03-15T09:19:10.454Z,1.20
2023-03-15T09:21:40.270Z,1.00
2023-03-15T09:24:08.555Z,1.10
2023-03-15T09:26:36.762Z,1.20
2023-03-15T09:29:05.112Z,1.40
2023-03-15T09:31:33.453Z,1.50
2023-03-15T09:34:01.636Z,1.60
2023-03-15T09:36:29.982Z,1.60
2023-03-15T09:38:59.543Z,1.50
2023-03-15T09:41:35.464Z,1.50
2023-03-15T09:44:10.118Z,1.60
2023-03-15T09:46:42.651Z,1.60
2023-03-15T09:49:13.968Z,1.70
2023-03-15T09:51:48.116Z,1.70
2023-03-15T09:54:19.559Z,1.80
2023-03-15T09:56:51.680Z,1.90
2023-03-15T09:59:25.468Z,1.90
2023-03-15T10:01:54.996Z,1.90
2023-03-15T10:04:26.708Z,1.90
2023-03-15T10:06:59.137Z,1.90
2023-03-15T10:09:33.271Z,2.00
2023-03-15T10:12:05.022Z,2.00
2023-03-15T10:14:41.343Z,2.20
2023-03-15T10:17:12.428Z,2.10
2023-03-15T10:19:45.941Z,2.20
2023-03-15T10:22:18.982Z,2.20
2023-03-15T10:24:50.752Z,2.20
2023-03-15T10:27:24.610Z,2.20
2023-03-15T10:29:56.983Z,2.30
2023-03-15T10:32:27.453Z,2.30
2023-03-15T10:34:57.759Z,2.40
2023-03-15T10:37:26.553Z,2.30
2023-03-15T10:39:58.355Z,2.40
2023-03-15T10:42:27.580Z,2.40
2023-03-15T10:44:55.952Z,2.50
2023-03-15T10:47:25.395Z,2.50
2023-03-15T10:49:57.785Z,2.60
2023-03-15T10:52:31.827Z,2.60
2023-03-15T10:55:04.603Z,2.70
2023-03-15T10:57:38.697Z,2.60
2023-03-15T11:00:10.375Z,2.70
2023-03-15T11:02:38.675Z,2.70
2023-03-15T11:05:16.832Z,2.80
2023-03-15T11:07:54.747Z,2.80
2023-03-15T11:10:26.316Z,2.70
2023-03-15T11:13:09.408Z,2.70
2023-03-15T11:15:37.728Z,2.60
2023-03-15T11:18:07.115Z,2.80
2023-03-15T11:20:37.963Z,2.80
2023-03-15T11:23:15.077Z,2.90
2023-03-15T11:25:44.788Z,2.80
2023-03-15T11:28:18.174Z,2.90
2023-03-15T11:30:48.544Z,2.90
2023-03-15T11:33:23.296Z,2.90
2023-03-15T11:35:52.962Z,3.00
2023-03-15T11:38:25.781Z,3.10
2023-03-15T11:41:01.137Z,3.20
2023-03-15T11:43:31.081Z,3.00
2023-03-15T11:46:00.256Z,3.10
2023-03-15T11:48:30.104Z,3.00
2023-03-15T11:50:59.012Z,3.30
2023-03-15T11:53:33.301Z,3.30
2023-03-15T11:56:20.875Z,3.40
2023-03-15T11:59:04.369Z,3.50
2023-03-15T12:01:32.716Z,3.40
2023-03-15T12:04:19.340Z,3.50
2023-03-15T12:06:47.995Z,3.60
2023-03-15T12:09:33.819Z,3.70
2023-03-15T12:12:04.718Z,3.70
2023-03-15T12:14:34.330Z,3.80
2023-03-15T12:17:20.829Z,3.70
2023-03-15T12:19:49.352Z,3.80
2023-03-15T12:22:18.255Z,3.70
2023-03-15T12:24:48.151Z,3.70
2023-03-15T12:27:19.492Z,3.80
2023-03-15T12:29:48.508Z,3.90
2023-03-15T12:32:17.270Z,4.00
2023-03-15T12:34:47.576Z,3.90
2023-03-15T12:37:18.680Z,3.90
2023-03-15T12:39:51.683Z,4.10
2023-03-15T12:42:39.342Z,4.30
2023-03-15T12:45:26.105Z,4.30
2023-03-15T12:48:12.745Z,4.30
2023-03-15T12:50:53.056Z,4.40
2023-03-15T12:53:24.904Z,4.40
2023-03-15T12:56:02.858Z,4.30
2023-03-15T12:58:37.686Z,4.00
2023-03-15T13:01:07.530Z,3.70
2023-03-15T13:03:36.448Z,3.50
2023-03-15T13:06:10.591Z,3.60
2023-03-15T13:08:42.203Z,3.90
2023-03-15T13:11:17.203Z,3.80
2023-03-15T13:14:09.561Z,3.60
2023-03-15T13:16:43.767Z,3.70
2023-03-15T13:19:17.904Z,3.90
2023-03-15T13:21:58.303Z,4.20
2023-03-15T13:24:30.947Z,4.30
2023-03-15T13:27:01.585Z,4.30
2023-03-15T13:29:31.401Z,4.30
2023-03-15T13:32:03.371Z,4.40
2023-03-15T13:34:34.266Z,4.40
2023-03-15T13:37:04.119Z,4.40
2023-03-15T13:39:33.613Z,4.30
2023-03-15T13:42:02.699Z,4.10
2023-03-15T13:44:32.058Z,3.90
2023-03-15T13:47:02.293Z,4.10
2023-03-15T13:49:32.342Z,3.80
2023-03-15T13:52:00.683Z,3.80
2023-03-15T13:54:31.667Z,3.60
2023-03-15T13:57:01.878Z,3.50
2023-03-15T13:59:33.946Z,3.50
2023-03-15T14:02:03.793Z,3.60
2023-03-15T14:04:33.048Z,3.60
2023-03-15T14:07:08.081Z,3.50
2023-03-15T14:09:37.613Z,3.80
2023-03-15T14:12:07.348Z,3.80
2023-03-15T14:14:37.932Z,3.70
2023-03-15T14:17:09.455Z,3.70
2023-03-15T14:19:38.051Z,3.80
2023-03-15T14:22:13.920Z,4.00
2023-03-15T14:24:44.388Z,4.20
2023-03-15T14:27:16.316Z,4.20
2023-03-15T14:29:47.754Z,4.00
2023-03-15T14:32:24.936Z,4.00
2023-03-15T14:35:01.478Z,4.00
2023-03-15T14:37:31.804Z,4.00
2023-03-15T14:40:21.417Z,4.00
2023-03-15T14:42:51.633Z,4.10
2023-03-15T14:45:22.222Z,4.00
2023-03-15T14:47:57.108Z,3.90
2023-03-15T14:50:26.773Z,3.90
2023-03-15T14:52:55.479Z,3.90
2023-03-15T14:55:24.803Z,3.80
2023-03-15T14:57:54.324Z,3.90
2023-03-15T15:00:22.876Z,4.00
2023-03-15T15:02:55.315Z,3.90
2023-03-15T15:05:24.990Z,3.80
2023-03-15T15:07:55.118Z,3.90
2023-03-15T15:10:23.588Z,3.60
2023-03-15T15:13:04.808Z,3.60
2023-03-15T15:15:53.541Z,3.50
2023-03-15T15:18:22.774Z,3.50
2023-03-15T15:20:54.438Z,3.60
2023-03-15T15:23:23.916Z,3.50
2023-03-15T15:25:53.110Z,3.60
2023-03-15T15:28:33.849Z,3.50
2023-03-15T15:31:05.048Z,3.60
2023-03-15T15:33:34.146Z,3.50
2023-03-15T15:36:02.669Z,3.50
2023-03-15T15:38:33.297Z,3.50
2023-03-15T15:41:01.541Z,3.60
2023-03-15T15:43:31.301Z,3.50
2023-03-15T15:46:01.938Z,3.50
2023-03-15T15:48:31.812Z,3.40
2023-03-15T15:50:59.896Z,3.30
2023-03-15T15:53:30.415Z,3.30
2023-03-15T15:55:58.788Z,3.20
2023-03-15T15:58:27.085Z,3.10
2023-03-15T16:00:55.273Z,3.20
2023-03-15T16:03:23.656Z,3.10
2023-03-15T16:05:53.255Z,3.00
2023-03-15T16:08:23.014Z,2.90
2023-03-15T16:10:51.275Z,2.90
2023-03-15T16:13:19.432Z,2.80
2023-03-15T16:15:47.632Z,2.70
2023-03-15T16:18:15.940Z,2.50
2023-03-15T16:20:44.158Z,2.40
2023-03-15T16:23:16.995Z,2.30
2023-03-15T16:25:45.516Z,2.30
2023-03-15T16:28:13.662Z,2.30
2023-03-15T16:30:42.325Z,2.20
2023-03-15T16:33:14.455Z,2.10
2023-03-15T16:38:02.090Z,2.00
2023-03-15T16:40:31.071Z,1.90
2023-03-15T16:42:59.544Z,1.90
2023-03-15T16:45:28.299Z,1.70
2023-03-15T16:47:56.987Z,1.70
2023-03-15T16:50:25.309Z,1.30
2023-03-15T16:52:54.971Z,0.70
2023-03-15T16:55:25.665Z,0.50
2023-03-15T16:57:54.077Z,0.50
2023-03-15T17:00:22.969Z,0.40
2023-03-15T17:02:52.642Z,0.40
2023-03-15T17:05:24.779Z,0.40
2023-03-15T17:07:53.916Z,0.50
2023-03-15T17:10:23.366Z,0.50
2023-03-15T17:12:53.650Z,0.60
2023-03-15T17:15:24.078Z,0.50
2023-03-15T17:17:52.779Z,0.80
2023-03-15T17:20:22.736Z,0.90
2023-03-15T17:22:51.282Z,0.80
2023-03-15T17:25:20.199Z,0.40
2023-03-15T17:27:49.343Z,0.40
2023-03-15T17:30:20.597Z,0.40
2023-03-15T17:32:49.437Z,0.40
2023-03-15T17:35:19.141Z,0.30
2023-03-15T17:37:49.417Z,0.20
2023-03-15T17:40:21.906Z,0.10
2023-03-15T17:42:51.984Z,0.10
2023-03-15T17:45:23.042Z,0.00
2023-03-15T17:47:52.368Z,0.00
2023-03-15T17:50:21.203Z,-0.10
2023-03-15T17:52:51.605Z,-0.10
2023-03-15T17:55:24.183Z,-0.10
2023-03-15T17:57:55.401Z,-0.10
2023-03-15T18:00:26.178Z,-0.20
2023-03-15T18:02:56.359Z,-0.20
2023-03-15T18:05:31.667Z,-0.20
2023-03-15T18:08:00.705Z,-0.30
2023-03-15T18:10:33.424Z,-0.40
2023-03-15T18:13:02.364Z,-0.50
2023-03-15T18:15:35.428Z,-0.60
2023-03-15T18:18:06.283Z,-0.60
2023-03-15T18:20:37.317Z,-0.70
2023-03-15T18:23:07.291Z,-0.90
2023-03-15T18:25:36.334Z,-0.80
2023-03-15T18:28:04.912Z,-0.80
2023-03-15T18:30:35.364Z,-0.90
2023-03-15T18:33:04.522Z,-0.80
2023-03-15T18:35:34.791Z,-0.80
2023-03-15T18:38:04.156Z,-0.80
2023-03-15T18:40:33.160Z,-0.80
2023-03-15T18:43:02.232Z,-0.80
2023-03-15T18:45:31.419Z,-0.80
2023-03-15T18:48:01.227Z,-0.60
2023-03-15T18:50:32.166Z,-0.50
2023-03-15T18:53:00.268Z,-0.50
2023-03-15T18:55:28.664Z,-0.50
2023-03-15T18:57:56.893Z,-0.50
2023-03-15T19:00:27.446Z,-0.50
2023-03-15T19:02:56.624Z,-0.60
2023-03-15T19:05:26.410Z,-0.60
2023-03-15T19:07:54.644Z,-0.60
2023-03-15T19:10:23.522Z,-0.60
2023-03-15T19:12:52.381Z,-0.60
2023-03-15T19:15:21.054Z,-0.60
2023-03-15T19:17:50.428Z,-0.60
2023-03-15T19:20:21.554Z,-0.70
2023-03-15T19:22:51.901Z,-0.70
2023-03-15T19:25:20.710Z,-0.70
2023-03-15T19:27:48.931Z,-0.70
2023-03-15T19:30:20.982Z,-0.80
2023-03-15T19:32:50.311Z,-0.80
2023-03-15T19:35:19.466Z,-0.80
2023-03-15T19:37:48.070Z,-0.80
2023-03-15T19:40:18.549Z,-1.00
2023-03-15T19:42:48.782Z,-1.00
2023-03-15T19:45:18.787Z,-1.10
2023-03-15T19:47:47.268Z,-1.10
2023-03-15T19:50:15.833Z,-1.30
2023-03-15T19:52:47.009Z,-1.30
2023-03-15T19:55:15.502Z,-1.50
2023-03-15T19:57:45.540Z,-1.50
2023-03-15T20:00:16.315Z,-1.60
2023-03-15T20:02:45.009Z,-1.60
2023-03-15T20:05:15.141Z,-1.70
2023-03-15T20:07:43.794Z,-1.70
2023-03-15T20:10:12.655Z,-1.70
2023-03-15T20:12:42.956Z,-1.70
2023-03-15T20:15:19.630Z,-1.80
2023-03-15T20:17:48.032Z,-1.80
2023-03-15T20:20:16.340Z,-2.00
2023-03-15T20:22:45.638Z,-2.00
2023-03-15T20:25:16.188Z,-2.10
2023-03-15T20:27:44.582Z,-2.20
2023-03-15T20:30:16.850Z,-2.20
2023-03-15T20:32:45.311Z,-2.20
2023-03-15T20:35:14.078Z,-2.20
2023-03-15T20:37:43.046Z,-2.20
2023-03-15T20:40:12.718Z,-2.20
2023-03-15T20:42:41.395Z,-2.30
2023-03-15T20:45:10.407Z,-2.30
2023-03-15T20:47:40.018Z,-2.20
2023-03-15T20:50:08.639Z,-2.20
2023-03-15T20:52:37.006Z,-2.30
2023-03-15T20:55:08.086Z,-2.40
2023-03-15T20:57:37.423Z,-2.40
2023-03-15T21:00:12.644Z,-2.40
2023-03-15T21:02:42.950Z,-2.30
2023-03-15T21:05:13.418Z,-2.40
2023-03-15T21:07:42.775Z,-2.40
2023-03-15T21:10:13.996Z,-2.40
2023-03-15T21:12:42.835Z,-2.40
2023-03-15T21:15:15.655Z,-2.40
2023-03-15T21:17:45.928Z,-2.40
2023-03-15T21:20:15.666Z,-2.40
2023-03-15T21:22:44.424Z,-2.50
2023-03-15T21:25:13.636Z,-2.50
2023-03-15T21:27:42.250Z,-2.60
2023-03-15T21:30:15.157Z,-2.50
2023-03-15T21:32:45.001Z,-2.40
2023-03-15T21:35:17.511Z,-2.40
2023-03-15T21:37:52.226Z,-2.40
2023-03-15T21:40:21.582Z,-2.40
2023-03-15T21:42:50.662Z,-2.40
2023-03-15T21:45:19.487Z,-2.40
2023-03-15T21:47:48.080Z,-2.40
2023-03-15T21:50:18.752Z,-2.40
2023-03-15T21:52:47.330Z,-2.30
2023-03-15T21:55:15.734Z,-2.30
2023-03-15T21:57:44.935Z,-2.30
2023-03-15T22:00:18.734Z,-2.30
2023-03-15T22:02:47.098Z,-2.30
2023-03-15T22:05:15.524Z,-2.20
2023-03-15T22:07:45.315Z,-2.30
2023-03-15T22:10:14.875Z,-2.40
2023-03-15T22:12:43.777Z,-2.40
2023-03-15T22:15:12.631Z,-2.50
2023-03-15T22:17:40.794Z,-2.40
2023-03-15T22:20:13.902Z,-2.30
2023-03-15T22:22:42.127Z,-2.30
2023-03-15T22:25:12.117Z,-2.40
2023-03-15T22:27:40.540Z,-2.40
2023-03-15T22:30:09.590Z,-2.40
2023-03-15T22:32:37.853Z,-2.40
2023-03-15T22:35:06.520Z,-2.50
2023-03-15T22:37:34.891Z,-2.50
2023-03-15T22:40:04.899Z,-2.60
2023-03-15T22:42:34.596Z,-2.50
2023-03-15T22:45:02.795Z,-2.50
2023-03-15T22:47:31.545Z,-2.50
2023-03-15T22:49:59.875Z,-2.60
2023-03-15T22:52:28.182Z,-2.60
2023-03-15T22:54:56.603Z,-2.70
2023-03-15T22:57:24.808Z,-2.60
2023-03-15T22:59:54.381Z,-2.60
2023-03-15T23:02:22.680Z,-2.60
2023-03-15T23:04:51.306Z,-2.50
2023-03-15T23:07:20.313Z,-2.70
2023-03-15T23:09:48.580Z,-2.70
2023-03-15T23:12:19.866Z,-2.70
2023-03-15T23:14:52.558Z,-2.70
2023-03-15T23:17:22.144Z,-2.90
2023-03-15T23:19:50.411Z,-2.90
2023-03-15T23:22:23.671Z,-2.90
2023-03-15T23:24:51.784Z,-2.90
2023-03-15T23:27:20.008Z,-2.90
2023-03-15T23:29:54.629Z,-2.90
2023-03-15T23:32:25.406Z,-2.90
2023-03-15T23:34:53.821Z,-3.00
2023-03-15T23:37:23.531Z,-3.00
2023-03-15T23:39:53.031Z,-3.00
2023-03-15T23:42:25.815Z,-3.00
2023-03-15T23:44:54.956Z,-3.00
2023-03-15T23:47:25.247Z,-3.00
2023-03-15T23:49:53.592Z,-3.10
2023-03-15T23:52:25.605Z,-3.10
2023-03-15T23:54:54.107Z,-3.20
2023-03-15T23:57:22.337Z,-3.10
2023-03-15T23:59:51.128Z,-3.20
